Time;durP1;ratioP1;P1;durP2;ratioP2;P2;SDS_P1;SDS_P2;PMS_P1;PMS_P2;Temp;Humidity;BMP_temperature;BMP_pressure;BME280_temperature;BME280_humidity;BME280_pressure;Samples;Min_cycle;Max_cycle;Signal;HPM_P1;HPM_P2
2021/01/04 00:00:44;;;;;;;27.00;18.63;;;6.50;92.40;;;;;;5085428;28;20130;-69
2021/01/04 00:03:28;;;;;;;24.58;17.80;;;6.50;92.70;;;;;;5085107;28;20055;-68
2021/01/04 00:06:06;;;;;;;24.73;17.40;;;6.50;92.50;;;;;;5085961;28;20046;-69
2021/01/04 00:09:07;;;;;;;22.20;16.88;;;6.60;92.40;;;;;;5085354;28;20032;-68
2021/01/04 00:11:54;;;;;;;28.85;17.85;;;6.70;92.30;;;;;;5081396;28;20180;-69
2021/01/04 00:14:22;;;;;;;28.70;16.77;;;6.70;92.10;;;;;;5085599;28;20071;-69
2021/01/04 00:17:24;;;;;;;23.20;16.08;;;6.70;92.10;;;;;;5084276;28;20602;-67
2021/01/04 00:19:54;;;;;;;21.25;16.67;;;6.70;92.20;;;;;;5053506;28;20048;-68
2021/01/04 00:22:24;;;;;;;28.60;18.27;;;6.70;92.30;;;;;;5064348;28;20060;-69
2021/01/04 00:24:56;;;;;;;23.23;16.45;;;6.70;92.10;;;;;;5067270;28;20067;-68
2021/01/04 00:27:40;;;;;;;22.35;15.93;;;6.70;92.20;;;;;;5083974;28;20051;-68
2021/01/04 00:30:26;;;;;;;22.77;14.95;;;6.60;92.40;;;;;;5084536;28;20426;-69
2021/01/04 00:32:55;;;;;;;21.70;14.77;;;6.50;92.50;;;;;;5064383;28;20050;-69
2021/01/04 00:35:24;;;;;;;21.60;14.45;;;6.60;92.50;;;;;;5085006;28;20447;-68
2021/01/04 00:38:24;;;;;;;26.85;13.98;;;6.80;92.10;;;;;;5082969;28;20032;-68
2021/01/04 00:41:07;;;;;;;22.40;14.75;;;6.80;91.70;;;;;;5085390;28;20506;-68
2021/01/04 00:43:55;;;;;;;18.90;13.00;;;6.80;91.90;;;;;;5084418;28;20043;-67
2021/01/04 00:46:31;;;;;;;22.42;15.90;;;6.80;92.10;;;;;;5085582;28;20039;-69
2021/01/04 00:49:14;;;;;;;22.13;14.50;;;6.80;92.10;;;;;;5064535;28;20052;-68
2021/01/04 00:51:54;;;;;;;17.27;12.48;;;6.80;92.20;;;;;;5083578;28;20574;-68
2021/01/04 00:54:32;;;;;;;19.80;14.15;;;6.80;92.10;;;;;;5085135;28;20047;-69
2021/01/04 00:57:20;;;;;;;22.42;14.27;;;6.80;92.20;;;;;;5081252;28;20044;-67
2021/01/04 01:00:12;;;;;;;22.15;14.95;;;6.80;92.20;;;;;;5066549;28;20146;-68
2021/01/04 01:03:07;;;;;;;23.17;15.75;;;6.70;92.60;;;;;;5082399;28;20020;-69
2021/01/04 01:05:53;;;;;;;19.33;14.30;;;6.80;92.50;;;;;;5071648;28;20534;-67
2021/01/04 01:08:26;;;;;;;24.83;13.43;;;7.00;92.20;;;;;;5084678;28;20047;-68
2021/01/04 01:11:01;;;;;;;18.25;13.32;;;6.90;92.10;;;;;;5081101;28;20044;-69
2021/01/04 01:13:59;;;;;;;25.02;15.32;;;7.00;92.00;;;;;;5084613;28;20036;-69
2021/01/04 01:16:39;;;;;;;;;;;7.00;92.00;;;;;;5088026;28;20074;-68
2021/01/04 01:19:22;;;;;;;22.27;14.45;;;6.90;92.10;;;;;;5088829;28;19924;-70
2021/01/04 01:21:48;;;;;;;21.08;15.18;;;6.80;92.50;;;;;;5088709;28;20052;-68
2021/01/04 01:24:14;;;;;;;22.60;15.25;;;6.90;92.30;;;;;;5088979;28;20036;-68
2021/01/04 01:27:07;;;;;;;21.13;14.55;;;7.00;92.00;;;;;;5088280;28;20056;-68
2021/01/04 01:29:54;;;;;;;19.13;14.65;;;6.90;92.10;;;;;;5083842;28;20055;-68
2021/01/04 01:32:38;;;;;;;27.02;15.45;;;6.90;92.10;;;;;;5070372;28;20134;-68
2021/01/04 01:35:06;;;;;;;18.35;13.98;;;6.80;92.40;;;;;;5088799;28;20036;-68
2021/01/04 01:37:44;;;;;;;21.33;14.68;;;6.70;92.60;;;;;;5087939;28;20032;-68
2021/01/04 01:40:34;;;;;;;19.45;13.10;;;6.60;92.70;;;;;;5083869;28;20563;-68
2021/01/04 01:43:20;;;;;;;19.63;13.10;;;6.70;92.90;;;;;;5088633;28;20032;-69
2021/01/04 01:46:13;;;;;;;17.92;12.70;;;6.80;92.70;;;;;;5088581;28;20039;-68
2021/01/04 01:49:16;;;;;;;21.23;13.88;;;6.80;92.60;;;;;;5085783;28;20424;-68
2021/01/04 01:52:06;;;;;;;20.52;13.50;;;6.70;92.70;;;;;;5086142;28;20550;-68
2021/01/04 01:54:44;;;;;;;20.20;13.45;;;6.60;92.90;;;;;;5088399;28;20090;-68
2021/01/04 01:57:15;;;;;;;23.08;15.82;;;6.70;92.90;;;;;;5088276;28;20050;-68
2021/01/04 02:00:02;;;;;;;22.25;15.73;;;6.70;92.80;;;;;;5085084;28;20067;-68
2021/01/04 02:02:35;;;;;;;20.33;13.27;;;6.70;92.90;;;;;;5088067;28;20109;-68
2021/01/04 02:05:19;;;;;;;17.30;13.07;;;6.80;92.70;;;;;;5087942;28;20051;-68
2021/01/04 02:07:54;;;;;;;25.95;13.43;;;6.70;92.70;;;;;;5087732;28;20088;-68
2021/01/04 02:10:46;;;;;;;17.33;12.82;;;6.80;92.60;;;;;;5087426;28;20034;-68
2021/01/04 02:13:37;;;;;;;23.33;15.18;;;6.80;92.50;;;;;;5083004;28;20048;-68
2021/01/04 02:16:10;;;;;;;21.52;14.98;;;6.70;92.60;;;;;;5087741;28;20124;-68
2021/01/04 02:19:06;;;;;;;21.23;14.68;;;6.80;92.70;;;;;;5087579;28;20024;-68
2021/01/04 02:21:54;;;;;;;20.50;15.27;;;6.70;92.60;;;;;;5086625;28;20098;-68
2021/01/04 02:24:25;;;;;;;26.23;13.98;;;6.70;92.70;;;;;;5076814;28;20123;-69
2021/01/04 02:27:09;;;;;;;21.63;13.43;;;6.60;92.90;;;;;;5071115;28;20052;-68
2021/01/04 02:29:35;;;;;;;19.48;13.35;;;6.60;93.00;;;;;;5075872;28;20536;-67
2021/01/04 02:32:03;;;;;;;;;;;6.60;93.00;;;;;;5063591;28;20040;-67
2021/01/04 02:34:37;;;;;;;21.50;12.98;;;6.50;93.20;;;;;;5063277;28;20287;-67
2021/01/04 02:37:04;;;;;;;18.08;11.98;;;6.40;93.50;;;;;;5061930;28;20407;-68
2021/01/04 02:39:44;;;;;;;22.95;13.75;;;6.40;93.60;;;;;;5062473;28;20040;-68
2021/01/04 02:42:16;;;;;;;19.52;13.60;;;6.30;93.80;;;;;;5060514;28;20048;-67
2021/01/04 02:44:44;;;;;;;19.60;13.95;;;6.30;94.10;;;;;;5062544;28;20120;-67
2021/01/04 02:47:39;;;;;;;21.77;12.63;;;6.30;94.00;;;;;;5062837;28;20040;-67
2021/01/04 02:50:40;;;;;;;19.15;12.40;;;6.50;93.80;;;;;;5044711;28;20636;-67
2021/01/04 02:53:36;;;;;;;18.42;11.30;;;6.60;93.50;;;;;;5060697;28;20044;-68
2021/01/04 02:56:14;;;;;;;18.33;12.73;;;6.60;93.30;;;;;;5064005;28;20157;-68
2021/01/04 02:58:55;;;;;;;15.30;10.15;;;6.50;93.40;;;;;;5063681;28;20082;-68
2021/01/04 03:01:29;;;;;;;18.35;8.85;;;6.50;93.50;;;;;;5061754;28;20028;-67
2021/01/04 03:03:55;;;;;;;13.68;9.02;;;6.70;93.20;;;;;;5062326;28;20042;-67
2021/01/04 03:06:44;;;;;;;;;;;6.70;93.20;;;;;;5062373;28;20051;-67
2021/01/04 03:09:10;;;;;;;10.20;7.35;;;6.70;93.30;;;;;;5058448;28;19926;-67
2021/01/04 03:11:39;;;;;;;11.93;7.80;;;6.60;93.40;;;;;;5082415;28;20434;-66
2021/01/04 03:14:29;;;;;;;14.00;8.55;;;6.50;93.50;;;;;;5083204;28;20085;-67
2021/01/04 03:17:13;;;;;;;11.50;7.53;;;6.40;93.70;;;;;;5065432;28;20240;-66
2021/01/04 03:19:41;;;;;;;11.60;7.47;;;6.40;93.90;;;;;;5078224;28;20424;-67
2021/01/04 03:22:12;;;;;;;10.73;7.00;;;6.40;93.80;;;;;;5082977;28;20555;-68
2021/01/04 03:24:38;;;;;;;12.20;8.75;;;6.30;93.90;;;;;;5080919;28;20769;-66
2021/01/04 03:27:08;;;;;;;;;;;6.30;94.10;;;;;;5083134;28;20063;-67
2021/01/04 03:29:34;;;;;;;11.55;8.23;;;6.20;94.20;;;;;;5078819;28;20008;-68
2021/01/04 03:32:00;;;;;;;;;;;6.20;94.40;;;;;;5083136;28;20571;-67
2021/01/04 03:34:26;;;;;;;16.23;8.05;;;6.20;94.50;;;;;;5082765;28;19920;-67
2021/01/04 03:36:52;;;;;;;;;;;6.30;94.50;;;;;;5081822;28;20764;-66
2021/01/04 03:39:17;;;;;;;11.07;7.60;;;6.50;94.30;;;;;;5082788;28;20376;-67
2021/01/04 03:41:43;;;;;;;;;;;6.60;93.80;;;;;;5082864;28;20089;-67
2021/01/04 03:44:09;;;;;;;10.27;6.70;;;6.80;93.30;;;;;;5082733;28;19920;-67
2021/01/04 03:46:35;;;;;;;12.57;7.25;;;6.70;93.40;;;;;;5081968;28;20435;-68
2021/01/04 03:49:01;;;;;;;;;;;6.70;93.50;;;;;;5082751;28;20595;-67
2021/01/04 03:51:26;;;;;;;15.18;9.75;;;6.80;93.20;;;;;;5081609;28;19916;-67
2021/01/04 03:53:52;;;;;;;;;;;6.60;93.50;;;;;;5077934;28;20044;-67
2021/01/04 03:56:19;;;;;;;16.70;10.40;;;6.50;94.20;;;;;;5081931;28;20199;-68
2021/01/04 03:58:45;;;;;;;16.88;10.55;;;6.40;94.20;;;;;;5082308;28;20044;-67
2021/01/04 04:01:10;;;;;;;;;;;6.40;94.40;;;;;;5078670;28;20046;-67
2021/01/04 04:03:36;;;;;;;13.80;9.27;;;6.60;94.10;;;;;;5081677;28;19916;-68
2021/01/04 04:06:02;;;;;;;;;;;6.80;93.70;;;;;;5082187;28;20210;-67
2021/01/04 04:08:28;;;;;;;14.05;9.23;;;6.70;93.40;;;;;;5082088;28;19916;-67
2021/01/04 04:10:53;;;;;;;;;;;6.80;93.30;;;;;;5079462;28;20039;-67
2021/01/04 04:13:19;;;;;;;18.98;11.38;;;6.70;93.50;;;;;;5080758;28;20304;-67
2021/01/04 04:15:44;;;;;;;;;;;6.70;93.70;;;;;;5082421;28;20032;-67
2021/01/04 04:18:10;;;;;;;12.73;8.23;;;6.60;93.90;;;;;;5075438;28;19962;-67
2021/01/04 04:20:35;;;;;;;;;;;6.60;93.90;;;;;;5081550;28;20044;-66
2021/01/04 04:23:01;;;;;;;12.40;8.10;;;6.70;93.90;;;;;;5082380;28;19920;-67
2021/01/04 04:25:27;;;;;;;;;;;6.70;93.60;;;;;;5078910;28;20138;-67
2021/01/04 04:27:54;;;;;;;15.30;8.32;;;6.70;93.50;;;;;;5083790;28;19924;-67
2021/01/04 04:30:22;;;;;;;18.67;9.68;;;6.80;93.40;;;;;;5084477;28;20048;-68
2021/01/04 04:32:56;;;;;;;14.98;8.85;;;6.90;93.10;;;;;;5081852;28;20032;-68
2021/01/04 04:35:23;;;;;;;14.52;8.80;;;6.90;93.10;;;;;;5083202;28;20044;-67
2021/01/04 04:37:48;;;;;;;15.40;8.90;;;6.80;93.10;;;;;;5084255;28;20101;-68
2021/01/04 04:40:16;;;;;;;;;;;6.80;93.30;;;;;;5084970;28;20044;-67
2021/01/04 04:42:42;;;;;;;15.13;8.70;;;6.70;93.30;;;;;;5066005;28;19959;-67
2021/01/04 04:45:11;;;;;;;;;;;6.80;93.50;;;;;;5084809;28;20071;-67
2021/01/04 04:48:20;;;;;;;13.20;8.10;;;6.90;93.10;;;;;;5065727;28;20031;-66
2021/01/04 04:51:11;;;;;;;14.90;8.57;;;7.00;92.80;;;;;;5085471;28;20121;-68
2021/01/04 04:53:55;;;;;;;16.75;8.40;;;6.80;93.30;;;;;;5086715;28;20032;-67
2021/01/04 04:56:32;;;;;;;16.92;9.43;;;6.60;93.90;;;;;;5070344;28;20051;-67
2021/01/04 04:59:31;;;;;;;19.10;10.70;;;6.40;94.20;;;;;;5088495;28;20573;-67
2021/01/04 05:02:10;;;;;;;18.48;11.00;;;6.30;94.60;;;;;;5088528;28;20036;-66
2021/01/04 05:04:57;;;;;;;21.65;11.32;;;6.20;95.00;;;;;;5069722;28;20527;-67
2021/01/04 05:07:26;;;;;;;16.98;10.25;;;6.20;95.10;;;;;;5087810;28;20036;-67
2021/01/04 05:10:00;;;;;;;14.98;9.32;;;6.30;95.20;;;;;;5088899;28;20075;-68
2021/01/04 05:12:31;;;;;;;17.65;9.18;;;6.50;94.90;;;;;;5088692;28;20035;-67
2021/01/04 05:15:04;;;;;;;16.65;10.07;;;6.50;94.80;;;;;;5085249;28;20036;-68
2021/01/04 05:17:50;;;;;;;14.63;8.30;;;6.50;94.70;;;;;;5088727;28;20036;-67
2021/01/04 05:20:53;;;;;;;13.88;9.35;;;6.60;94.70;;;;;;5088171;28;20093;-68
2021/01/04 05:23:34;;;;;;;16.33;10.40;;;6.60;94.50;;;;;;5088508;28;20063;-68
2021/01/04 05:26:28;;;;;;;17.73;11.02;;;6.50;94.70;;;;;;5088872;28;20164;-67
2021/01/04 05:29:15;;;;;;;14.70;9.57;;;6.50;94.80;;;;;;5068467;28;20035;-67
2021/01/04 05:31:52;;;;;;;;;;;6.50;94.80;;;;;;5088387;28;20043;-68
2021/01/04 05:34:39;;;;;;;15.68;10.07;;;6.50;94.80;;;;;;5087685;28;19920;-67
2021/01/04 05:37:22;;;;;;;;;;;6.50;94.90;;;;;;5089014;28;20485;-67
2021/01/04 05:40:18;;;;;;;14.85;9.50;;;6.40;94.90;;;;;;5087910;28;19923;-66
2021/01/04 05:43:02;;;;;;;19.48;10.48;;;6.50;94.70;;;;;;5086782;28;20032;-67
2021/01/04 05:45:38;;;;;;;17.15;10.48;;;6.40;94.80;;;;;;5084178;28;20040;-67
2021/01/04 05:48:32;;;;;;;15.40;9.90;;;6.30;95.00;;;;;;5087847;28;20047;-67
2021/01/04 05:51:19;;;;;;;20.23;11.00;;;6.40;95.00;;;;;;5087736;28;20207;-67
2021/01/04 05:53:45;;;;;;;20.98;12.05;;;6.40;94.80;;;;;;5088226;28;20437;-67
2021/01/04 05:56:11;;;;;;;;;;;6.40;95.00;;;;;;5070145;28;20141;-67
2021/01/04 05:58:36;;;;;;;19.17;12.43;;;6.30;95.10;;;;;;5070082;28;19973;-66
2021/01/04 06:01:10;;;;;;;;;;;6.30;95.40;;;;;;5087090;28;20036;-67
2021/01/04 06:03:35;;;;;;;15.00;9.45;;;6.30;95.20;;;;;;5087219;28;20319;-67
2021/01/04 06:06:07;;;;;;;;;;;6.60;94.80;;;;;;5070195;28;20535;-66
2021/01/04 06:08:33;;;;;;;15.73;10.43;;;6.60;94.40;;;;;;5088120;28;19931;-66
2021/01/04 06:11:09;;;;;;;;;;;6.50;94.50;;;;;;5070069;28;20032;-66
2021/01/04 06:13:44;;;;;;;17.27;11.35;;;6.40;94.70;;;;;;5087553;28;19920;-67
2021/01/04 06:16:15;;;;;;;18.58;12.10;;;6.50;94.90;;;;;;5087086;28;20036;-67
2021/01/04 06:18:46;;;;;;;19.17;12.57;;;6.40;94.90;;;;;;5083359;28;20122;-67
2021/01/04 06:21:38;;;;;;;19.02;13.18;;;6.40;95.10;;;;;;5087327;28;20051;-67
2021/01/04 06:24:05;;;;;;;18.55;13.20;;;6.30;95.30;;;;;;5079112;28;20051;-68
2021/01/04 06:26:31;;;;;;;20.92;12.50;;;6.40;95.40;;;;;;5069362;28;20052;-67
2021/01/04 06:28:59;;;;;;;;;;;6.50;94.90;;;;;;5088082;28;20408;-67
2021/01/04 06:31:29;;;;;;;23.40;13.57;;;6.50;94.70;;;;;;5084420;28;19920;-68
2021/01/04 06:34:00;;;;;;;20.33;14.50;;;6.50;94.80;;;;;;5085766;28;20121;-68
2021/01/04 06:36:27;;;;;;;21.60;13.73;;;6.50;94.70;;;;;;5087346;28;20051;-67
2021/01/04 06:38:53;;;;;;;20.08;14.05;;;6.40;95.00;;;;;;5087118;28;20459;-67
2021/01/04 06:41:31;;;;;;;25.55;15.38;;;6.50;95.10;;;;;;5087374;28;20039;-66
2021/01/04 06:44:10;;;;;;;23.50;15.90;;;6.40;95.00;;;;;;5086925;28;20511;-67
2021/01/04 06:46:47;;;;;;;21.48;15.15;;;6.40;95.20;;;;;;5086993;28;20586;-67
2021/01/04 06:49:23;;;;;;;19.88;14.65;;;6.50;95.00;;;;;;5086328;28;20582;-67
2021/01/04 06:51:57;;;;;;;21.85;13.85;;;6.60;94.60;;;;;;5067594;28;20122;-67
2021/01/04 06:54:42;;;;;;;25.30;15.32;;;6.50;94.70;;;;;;5087088;28;20097;-67
2021/01/04 06:57:45;;;;;;;24.65;14.55;;;6.60;94.50;;;;;;5086947;28;20036;-67
2021/01/04 07:00:22;;;;;;;23.58;15.43;;;6.60;94.50;;;;;;5068740;28;20407;-67
2021/01/04 07:03:09;;;;;;;29.17;18.02;;;6.60;94.60;;;;;;5066643;28;20044;-66
2021/01/04 07:05:56;;;;;;;24.60;16.52;;;6.50;94.60;;;;;;5086776;28;20032;-67
2021/01/04 07:08:34;;;;;;;30.67;18.42;;;6.40;94.90;;;;;;5084091;28;20037;-67
2021/01/04 07:11:12;;;;;;;33.65;20.42;;;6.60;94.80;;;;;;5086318;28;20043;-67
2021/01/04 07:13:46;;;;;;;27.20;18.13;;;6.60;94.60;;;;;;5086677;28;20036;-67
2021/01/04 07:16:33;;;;;;;33.25;22.73;;;6.50;94.60;;;;;;5086273;28;20044;-66
2021/01/04 07:18:58;;;;;;;46.67;30.42;;;6.50;94.90;;;;;;5086497;28;20480;-67
2021/01/04 07:21:45;;;;;;;;;;;6.40;95.00;;;;;;5082497;28;20121;-67
2021/01/04 07:24:47;;;;;;;33.03;20.02;;;6.40;95.10;;;;;;5086454;28;19916;-67
2021/01/04 07:27:47;;;;;;;33.58;22.10;;;6.30;95.20;;;;;;5003445;28;20137;-67
2021/01/04 07:30:25;;;;;;;33.20;21.17;;;6.40;95.30;;;;;;5086141;28;20067;-66
2021/01/04 07:33:07;;;;;;;27.35;19.73;;;6.40;95.40;;;;;;5085658;28;20043;-67
2021/01/04 07:35:45;;;;;;;31.65;20.05;;;6.40;95.10;;;;;;5086402;28;20028;-66
2021/01/04 07:38:36;;;;;;;29.65;18.05;;;6.50;95.10;;;;;;5086237;28;20055;-67
2021/01/04 07:41:10;;;;;;;34.47;21.77;;;6.50;95.00;;;;;;5084119;28;20048;-67
2021/01/04 07:43:45;;;;;;;30.40;20.05;;;6.60;95.20;;;;;;5085966;28;20862;-67
2021/01/04 07:46:36;;;;;;;25.05;17.33;;;6.70;94.90;;;;;;5083712;28;20047;-67
2021/01/04 07:49:41;;;;;;;23.10;16.20;;;6.80;94.60;;;;;;5067514;28;20050;-66
2021/01/04 07:52:44;;;;;;;26.48;18.25;;;7.00;94.00;;;;;;5085707;28;20040;-66
2021/01/04 07:55:28;;;;;;;33.45;27.48;;;7.10;93.30;;;;;;5084592;28;20040;-69
2021/01/04 07:58:16;;;;;;;23.88;16.15;;;7.20;93.40;;;;;;5085593;28;20412;-67
2021/01/04 08:01:29;;;;;;;24.20;17.15;;;7.20;92.70;;;;;;5082441;28;20923;-66
2021/01/04 08:04:04;;;;;;;22.15;13.52;;;7.30;92.90;;;;;;5082819;28;20039;-67
2021/01/04 08:07:08;;;;;;;20.20;13.38;;;7.20;92.70;;;;;;5085826;28;20036;-66
2021/01/04 08:09:58;;;;;;;22.13;14.18;;;7.40;93.00;;;;;;5082334;28;20036;-67
2021/01/04 08:12:54;;;;;;;20.40;12.70;;;7.60;92.90;;;;;;5067403;28;20130;-66
2021/01/04 08:15:59;;;;;;;18.92;13.07;;;7.90;91.50;;;;;;5085616;28;20566;-67
2021/01/04 08:18:26;;;;;;;15.85;11.63;;;8.00;91.00;;;;;;5053302;28;20055;-66
2021/01/04 08:20:59;;;;;;;21.65;11.48;;;8.20;90.90;;;;;;5085188;28;20044;-66
2021/01/04 08:23:46;;;;;;;17.70;11.57;;;8.30;90.30;;;;;;5084982;28;20036;-66
2021/01/04 08:26:26;;;;;;;18.40;11.48;;;8.30;90.30;;;;;;5085339;28;20415;-66
2021/01/04 08:29:13;;;;;;;16.25;11.38;;;8.30;90.30;;;;;;5066882;28;20044;-66
2021/01/04 08:31:40;;;;;;;16.88;10.70;;;8.10;90.20;;;;;;5081636;28;20070;-67
2021/01/04 08:34:10;;;;;;;17.10;11.25;;;8.10;90.80;;;;;;5082393;28;20067;-65
2021/01/04 08:36:41;;;;;;;16.65;10.77;;;8.10;90.80;;;;;;5064529;28;20068;-66
2021/01/04 08:39:10;;;;;;;20.45;10.77;;;8.10;90.90;;;;;;5082661;28;20039;-67
2021/01/04 08:41:37;;;;;;;26.25;14.75;;;8.00;90.90;;;;;;5083993;28;20032;-67
2021/01/04 08:44:19;;;;;;;23.38;11.75;;;8.10;90.90;;;;;;5067044;28;20416;-67
2021/01/04 08:46:46;;;;;;;21.42;12.73;;;8.00;90.90;;;;;;5083938;28;20851;-67
2021/01/04 08:49:26;;;;;;;20.17;13.55;;;8.10;90.70;;;;;;5084990;28;20123;-67
2021/01/04 08:51:53;;;;;;;15.65;10.85;;;8.10;90.80;;;;;;5085502;28;20051;-66
2021/01/04 08:54:21;;;;;;;16.13;11.07;;;8.10;90.30;;;;;;5085051;28;20032;-67
2021/01/04 08:57:03;;;;;;;13.20;9.90;;;8.20;89.10;;;;;;5082419;28;20165;-66
2021/01/04 08:59:33;;;;;;;16.23;11.25;;;8.10;89.40;;;;;;5083063;28;20096;-67
2021/01/04 09:02:00;;;;;;;13.38;10.18;;;7.90;90.00;;;;;;5084476;28;20039;-67
2021/01/04 09:04:39;;;;;;;15.85;10.88;;;7.90;90.40;;;;;;5084964;28;20032;-67
2021/01/04 09:07:11;;;;;;;16.98;10.55;;;7.90;90.60;;;;;;5083756;28;20047;-67
2021/01/04 09:09:54;;;;;;;14.35;10.30;;;8.10;90.30;;;;;;5084950;28;20809;-67
2021/01/04 09:12:29;;;;;;;16.15;10.57;;;8.10;90.20;;;;;;5085014;28;20066;-67
2021/01/04 09:15:01;;;;;;;14.55;10.27;;;8.20;89.60;;;;;;5084721;28;20122;-67
2021/01/04 09:17:34;;;;;;;16.85;10.73;;;8.10;89.30;;;;;;5084523;28;20087;-68
2021/01/04 09:20:04;;;;;;;18.13;11.52;;;8.00;90.40;;;;;;5079188;28;20039;-67
2021/01/04 09:22:30;;;;;;;17.67;12.65;;;8.10;90.40;;;;;;5084867;28;20471;-67
2021/01/04 09:24:55;;;;;;;;;;;8.10;90.40;;;;;;5084913;28;20036;-67
2021/01/04 09:27:33;;;;;;;23.85;15.25;;;8.10;90.60;;;;;;5084597;28;19920;-67
2021/01/04 09:30:03;;;;;;;14.85;11.25;;;8.20;90.40;;;;;;5084811;28;20047;-67
2021/01/04 09:32:35;;;;;;;31.42;17.90;;;8.30;89.40;;;;;;5084022;28;20048;-67
2021/01/04 09:35:07;;;;;;;19.63;11.40;;;8.50;88.20;;;;;;5084803;28;20032;-67
2021/01/04 09:37:37;;;;;;;26.98;17.38;;;8.40;88.40;;;;;;5088286;28;20044;-67
2021/01/04 09:40:10;;;;;;;24.35;15.77;;;8.30;89.40;;;;;;5088793;28;20583;-67
2021/01/04 09:42:36;;;;;;;68.30;47.20;;;8.30;89.00;;;;;;5067958;28;20170;-68
2021/01/04 09:45:18;;;;;;;27.33;16.85;;;8.30;88.50;;;;;;5088462;28;20046;-67
2021/01/04 09:47:48;;;;;;;15.82;11.75;;;8.40;88.30;;;;;;5087599;28;20036;-66
2021/01/04 09:50:23;;;;;;;36.95;25.02;;;8.60;88.80;;;;;;5087806;28;20640;-67
2021/01/04 09:53:24;;;;;;;15.50;10.25;;;8.70;88.30;;;;;;5088308;28;20040;-68
2021/01/04 09:55:56;;;;;;;12.68;9.27;;;8.80;86.40;;;;;;5083575;28;20039;-67
2021/01/04 09:58:22;;;;;;;11.82;8.30;;;8.80;87.00;;;;;;5069951;28;20075;-67
2021/01/04 10:00:48;;;;;;;;;;;8.90;87.20;;;;;;5084884;28;20072;-66
2021/01/04 10:03:18;;;;;;;15.90;8.40;;;9.00;84.20;;;;;;5087793;28;20004;-66
2021/01/04 10:05:47;;;;;;;13.88;8.55;;;8.90;85.10;;;;;;5087629;28;20043;-68
2021/01/04 10:08:14;;;;;;;12.80;7.05;;;8.80;84.40;;;;;;5069260;28;20036;-68
2021/01/04 10:10:50;;;;;;;14.90;8.48;;;8.80;85.30;;;;;;5088005;28;20093;-66
2021/01/04 10:13:15;;;;;;;16.30;11.03;;;8.80;85.00;;;;;;5086805;28;20506;-67
2021/01/04 10:15:41;;;;;;;;;;;8.80;84.20;;;;;;5088039;28;20278;-65
2021/01/04 10:18:30;;;;;;;12.07;7.82;;;8.90;83.20;;;;;;5087876;28;20548;-67
2021/01/04 10:20:56;;;;;;;12.15;8.48;;;8.80;84.50;;;;;;5087685;28;20563;-66
2021/01/04 10:23:28;;;;;;;;;;;8.70;85.10;;;;;;5087810;28;20119;-67
2021/01/04 10:25:58;;;;;;;11.98;8.30;;;8.80;84.20;;;;;;5087496;28;19920;-68
2021/01/04 10:28:35;;;;;;;15.77;10.70;;;8.60;84.70;;;;;;5087244;28;20089;-67
2021/01/04 10:31:09;;;;;;;12.43;8.75;;;8.60;85.80;;;;;;5086999;28;20040;-66
2021/01/04 10:33:39;;;;;;;11.48;8.20;;;8.70;85.20;;;;;;5087533;28;20081;-66
2021/01/04 10:36:13;;;;;;;14.30;7.65;;;8.70;85.00;;;;;;5052971;28;20079;-66
2021/01/04 10:38:42;;;;;;;14.35;9.13;;;8.60;85.40;;;;;;5087032;28;20040;-67
2021/01/04 10:41:14;;;;;;;13.15;8.55;;;8.70;85.20;;;;;;5087358;28;20484;-67
2021/01/04 10:43:40;;;;;;;11.77;7.78;;;8.80;84.00;;;;;;5087378;28;20126;-67
2021/01/04 10:46:21;;;;;;;20.92;10.45;;;8.80;83.40;;;;;;5086020;28;20055;-66
2021/01/04 10:49:02;;;;;;;14.32;8.63;;;8.90;83.00;;;;;;5086986;28;20043;-66
2021/01/04 10:51:29;;;;;;;13.25;7.85;;;8.90;84.10;;;;;;5086554;28;20032;-66
2021/01/04 10:53:55;;;;;;;11.65;8.18;;;9.00;83.00;;;;;;5087011;28;20428;-67
2021/01/04 10:56:34;;;;;;;13.35;8.27;;;9.00;83.90;;;;;;5087116;28;20036;-67
2021/01/04 10:59:30;;;;;;;10.45;6.70;;;9.10;83.90;;;;;;5084486;28;20065;-67
2021/01/04 11:01:58;;;;;;;13.23;6.30;;;9.20;83.60;;;;;;5086641;28;20542;-68
2021/01/04 11:04:24;;;;;;;11.77;6.88;;;9.30;82.60;;;;;;5086549;28;20082;-67
2021/01/04 11:07:00;;;;;;;;;;;9.40;82.30;;;;;;5086805;28;20447;-67
2021/01/04 11:09:30;;;;;;;13.05;5.95;;;9.40;82.50;;;;;;5086835;28;20002;-67
2021/01/04 11:12:13;;;;;;;9.07;6.78;;;9.40;82.20;;;;;;5086857;28;20132;-67
2021/01/04 11:14:50;;;;;;;10.93;7.55;;;9.40;81.00;;;;;;5084521;28;20044;-67
2021/01/04 11:17:19;;;;;;;11.00;7.32;;;9.50;81.50;;;;;;5086122;28;20039;-66
2021/01/04 11:19:46;;;;;;;13.50;7.80;;;9.50;81.00;;;;;;5068208;28;20036;-67
2021/01/04 11:22:27;;;;;;;10.93;7.13;;;9.60;80.10;;;;;;5066449;28;20536;-67
2021/01/04 11:24:56;;;;;;;16.05;10.82;;;9.60;80.00;;;;;;5086528;28;20063;-66
2021/01/04 11:27:23;;;;;;;13.15;7.90;;;9.30;81.40;;;;;;5085914;28;20586;-66
2021/01/04 11:29:50;;;;;;;27.95;18.33;;;9.40;82.00;;;;;;5086047;28;20093;-66
2021/01/04 11:32:17;;;;;;;13.88;8.40;;;9.40;81.10;;;;;;5085927;28;20051;-66
2021/01/04 11:34:45;;;;;;;14.38;8.65;;;9.40;81.50;;;;;;5086420;28;20039;-67
2021/01/04 11:37:11;;;;;;;12.95;6.20;;;9.60;80.20;;;;;;5064469;28;20033;-67
2021/01/04 11:39:36;;;;;;;;;;;9.50;80.30;;;;;;5086716;28;20031;-67
2021/01/04 11:42:04;;;;;;;11.32;7.15;;;9.50;79.50;;;;;;5086371;28;19920;-66
2021/01/04 11:44:30;;;;;;;12.48;7.72;;;9.70;79.60;;;;;;5085362;28;20443;-67
2021/01/04 11:46:55;;;;;;;;;;;9.60;79.20;;;;;;5086541;28;20044;-66
2021/01/04 11:49:21;;;;;;;13.68;8.80;;;9.70;79.00;;;;;;5085659;28;19919;-67
2021/01/04 11:51:50;;;;;;;;;;;9.80;78.20;;;;;;5086377;28;20031;-68
2021/01/04 11:54:16;;;;;;;16.55;9.82;;;9.70;79.10;;;;;;5084243;28;19927;-67
2021/01/04 11:56:41;;;;;;;;;;;9.60;80.30;;;;;;5086430;28;20035;-67
2021/01/04 11:59:07;;;;;;;23.27;11.07;;;9.50;81.30;;;;;;5085113;28;20380;-67
2021/01/04 12:01:36;;;;;;;;;;;9.60;81.00;;;;;;5067722;28;20040;-67
2021/01/04 12:04:03;;;;;;;21.70;14.27;;;9.50;81.80;;;;;;5085872;28;19915;-65
2021/01/04 12:06:29;;;;;;;21.70;11.43;;;9.40;81.80;;;;;;5081491;28;20043;-65
2021/01/04 12:08:54;;;;;;;;;;;9.40;82.10;;;;;;5085617;28;20047;-66
2021/01/04 12:11:21;;;;;;;15.52;9.52;;;9.30;82.20;;;;;;5085450;28;19920;-67
2021/01/04 12:13:48;;;;;;;19.80;10.93;;;9.30;82.50;;;;;;5085428;28;20496;-67
2021/01/04 12:16:14;;;;;;;20.80;13.60;;;9.30;82.30;;;;;;5085243;28;20036;-67
2021/01/04 12:18:39;;;;;;;;;;;9.30;82.90;;;;;;5085760;28;20043;-67
2021/01/04 12:21:05;;;;;;;13.38;8.65;;;9.20;83.00;;;;;;5085781;28;20018;-67
2021/01/04 12:23:31;;;;;;;;;;;9.20;83.50;;;;;;5086046;28;20088;-66
2021/01/04 12:25:56;;;;;;;19.95;10.40;;;9.30;83.90;;;;;;5084363;28;20040;-65
2021/01/04 12:28:22;;;;;;;;;;;9.20;83.10;;;;;;5084647;28;20047;-66
2021/01/04 12:30:47;;;;;;;19.15;9.25;;;9.20;83.90;;;;;;5084238;28;19923;-65
2021/01/04 12:33:13;;;;;;;;;;;9.20;83.70;;;;;;5085030;28;20406;-67
2021/01/04 12:35:39;;;;;;;17.95;10.43;;;9.30;83.70;;;;;;5084193;28;19927;-65
2021/01/04 12:38:04;;;;;;;;;;;9.30;83.70;;;;;;5084508;28;20040;-67
2021/01/04 12:40:32;;;;;;;13.38;8.70;;;9.30;83.80;;;;;;5085362;28;19916;-66
2021/01/04 12:43:00;;;;;;;15.05;8.70;;;9.30;83.40;;;;;;5085242;28;20032;-66
2021/01/04 12:45:26;;;;;;;53.17;37.35;;;9.30;83.10;;;;;;5084652;28;20567;-66
2021/01/04 12:47:52;;;;;;;;;;;9.20;83.90;;;;;;5085208;28;20043;-66
2021/01/04 12:50:18;;;;;;;18.33;11.75;;;9.20;84.30;;;;;;5085322;28;19916;-65
2021/01/04 12:52:43;;;;;;;;;;;9.20;84.30;;;;;;5085837;28;20028;-67
2021/01/04 12:55:10;;;;;;;21.67;13.30;;;9.20;84.50;;;;;;5084788;28;19915;-67
2021/01/04 12:57:36;;;;;;;24.55;13.52;;;9.20;84.40;;;;;;5081231;28;20032;-67
2021/01/04 13:00:02;;;;;;;;;;;9.20;84.50;;;;;;5064504;28;20043;-67
2021/01/04 13:02:28;;;;;;;19.45;11.27;;;9.10;85.20;;;;;;5085438;28;19987;-67
2021/01/04 13:04:53;;;;;;;;;;;9.10;85.00;;;;;;5082573;28;20118;-67
2021/01/04 13:07:19;;;;;;;17.00;8.85;;;9.10;85.50;;;;;;5084991;28;19927;-67
2021/01/04 13:09:45;;;;;;;;;;;9.20;85.50;;;;;;5086064;28;20131;-67
2021/01/04 13:12:11;;;;;;;16.23;9.98;;;9.00;85.90;;;;;;5088963;28;20199;-67
2021/01/04 13:14:36;;;;;;;;;;;8.90;86.40;;;;;;5087824;28;20024;-67
2021/01/04 13:17:03;;;;;;;14.05;10.15;;;8.80;86.60;;;;;;5068655;28;19928;-67
2021/01/04 13:19:30;;;;;;;16.08;10.82;;;8.80;87.10;;;;;;5088108;28;20119;-67
2021/01/04 13:22:00;;;;;;;19.52;12.93;;;8.70;87.70;;;;;;5087840;28;20036;-67
2021/01/04 13:24:26;;;;;;;24.83;15.23;;;8.70;88.00;;;;;;5088157;28;20420;-67
2021/01/04 13:26:54;;;;;;;22.70;14.23;;;8.70;87.70;;;;;;5088707;28;20405;-65
2021/01/04 13:29:23;;;;;;;20.90;12.90;;;8.70;87.90;;;;;;5084867;28;20542;-68
2021/01/04 13:31:49;;;;;;;12.77;9.88;;;8.70;88.50;;;;;;5088596;28;20031;-66
2021/01/04 13:34:16;;;;;;;18.65;11.00;;;8.60;88.70;;;;;;5088793;28;20454;-67
2021/01/04 13:36:47;;;;;;;20.20;13.13;;;8.60;88.60;;;;;;5088719;28;20107;-68